Погода Кампестрена 2 недели

Минас-Жерайс, Бразилия

16 - 28 июля
  • 16июля
    Сегодня
    +11°
    +23°
    Облачно с прояснениями
    ВремяПогодаТемператураВлажностьДавлениеВетер, м/сВероятность осадков
    00:00Ясно и безоблачно+15°C71 %672 мм3.0 м/с5 %
    03:00Ясно и безоблачно+14°C79 %671 мм3.0 м/с5 %
    06:00Практически безоблачно+13°C83 %671 мм2.7 м/с5 %
    09:00Ясно и безоблачно+16°C65 %673 мм3.0 м/с5 %
    12:00Ясно и безоблачно+21°C50 %674 мм3.1 м/с5 %
    15:00Облачно с прояснениями+23°C44 %673 мм2.7 м/с5 %
    18:00Ясно и безоблачно+19°C61 %672 мм1.8 м/с5 %
    21:00Ясно и безоблачно+16°C67 %672 мм2.0 м/с5 %
  • 17июля
    Среда
    +12°
    +24°
    Практически безоблачно
    ВремяПогодаТемператураВлажностьДавлениеВетер, м/сВероятность осадков
    00:00Ясно и безоблачно+15°C73 %672 мм1.8 м/с5 %
    03:00Ясно и безоблачно+13°C79 %671 мм2.5 м/с5 %
    06:00Ясно и безоблачно+12°C85 %671 мм1.9 м/с5 %
    09:00Ясно и безоблачно+17°C68 %673 мм1.7 м/с5 %
    12:00Ясно и безоблачно+22°C50 %673 мм2.2 м/с5 %
    15:00Практически безоблачно+24°C42 %672 мм1.7 м/с5 %
    18:00Ясно и безоблачно+20°C63 %671 мм1.5 м/с5 %
    21:00Ясно и безоблачно+17°C74 %671 мм1.2 м/с5 %
  • 18июля
    Четверг
    +11°
    +25°
    Практически безоблачно
    ВремяПогодаТемператураВлажностьДавлениеВетер, м/сВероятность осадков
    00:00Ясно и безоблачно+15°C76 %670 мм2.1 м/с5 %
    03:00Ясно и безоблачно+14°C78 %668 мм2.3 м/с5 %
    06:00Ясно и безоблачно+13°C79 %669 мм1.8 м/с5 %
    09:00Ясно и безоблачно+18°C60 %672 мм0.8 м/с5 %
    12:00Ясно и безоблачно+23°C43 %672 мм1.5 м/с5 %
    15:00Практически безоблачно+25°C39 %671 мм1.6 м/с5 %
    18:00Ясно и безоблачно+21°C57 %670 мм1.4 м/с5 %
    21:00Ясно и безоблачно+18°C61 %671 мм2.6 м/с5 %
  • 19июля
    Пятница
    +11°
    +25°
    Ясно и безоблачно
    ВремяПогодаТемператураВлажностьДавлениеВетер, м/сВероятность осадков
    00:00Ясно и безоблачно+16°C67 %670 мм2.1 м/с5 %
    03:00Ясно и безоблачно+13°C68 %669 мм1.9 м/с5 %
    06:00Ясно и безоблачно+12°C78 %670 мм2.4 м/с5 %
    09:00Ясно и безоблачно+18°C65 %673 мм1.6 м/с5 %
    12:00Ясно и безоблачно+22°C49 %674 мм2.5 м/с5 %
    15:00Ясно и безоблачно+25°C43 %672 мм1.4 м/с5 %
    18:00Ясно и безоблачно+21°C61 %672 мм1.9 м/с5 %
    21:00Ясно и безоблачно+18°C68 %672 мм1.8 м/с5 %
Мы используем cookies
Соглашаюсь